createdAt,value
2019-02-07T00:02:16.283Z,7.40
2019-02-07T00:04:47.965Z,7.38
2019-02-07T00:07:19.608Z,7.38
2019-02-07T00:09:51.266Z,7.36
2019-02-07T00:12:22.934Z,7.37
2019-02-07T00:14:54.574Z,7.36
2019-02-07T00:17:26.240Z,7.35
2019-02-07T00:19:57.886Z,7.35
2019-02-07T00:22:29.544Z,7.34
2019-02-07T00:25:01.205Z,7.34
2019-02-07T00:27:32.854Z,7.34
2019-02-07T00:30:11.708Z,7.30
2019-02-07T00:32:43.358Z,7.29
2019-02-07T00:35:15.021Z,7.27
2019-02-07T00:37:46.675Z,7.25
2019-02-07T00:40:21.737Z,7.26
2019-02-07T00:42:53.386Z,7.27
2019-02-07T00:45:25.098Z,7.28
2019-02-07T00:47:56.810Z,7.28
2019-02-07T00:50:31.059Z,7.30
2019-02-07T00:53:01.931Z,7.29
2019-02-07T00:55:33.585Z,7.29
2019-02-07T00:58:05.235Z,7.30
2019-02-07T01:00:36.887Z,7.31
2019-02-07T01:03:08.613Z,7.30
2019-02-07T01:05:40.340Z,7.30
2019-02-07T01:08:11.998Z,7.30
2019-02-07T01:10:43.644Z,7.28
2019-02-07T01:13:15.366Z,7.30
2019-02-07T01:15:47.012Z,7.31
2019-02-07T01:18:18.689Z,7.32
2019-02-07T01:20:50.344Z,7.31
2019-02-07T01:23:22.286Z,7.29
2019-02-07T01:25:54.201Z,7.31
2019-02-07T01:28:25.873Z,7.31
2019-02-07T01:30:57.520Z,7.33
2019-02-07T01:33:29.306Z,7.35
2019-02-07T01:36:00.989Z,7.33
2019-02-07T01:38:33.074Z,7.34
2019-02-07T01:41:05.089Z,7.31
2019-02-07T01:43:37.013Z,7.30
2019-02-07T01:46:09.011Z,7.30
2019-02-07T01:48:40.930Z,7.29
2019-02-07T01:51:12.953Z,7.27
2019-02-07T01:53:45.043Z,7.27
2019-02-07T01:56:17.058Z,7.27
2019-02-07T01:58:49.115Z,7.26
2019-02-07T02:01:21.063Z,7.26
2019-02-07T02:03:53.074Z,7.25
2019-02-07T02:06:25.113Z,7.25
2019-02-07T02:08:57.434Z,7.24
2019-02-07T02:11:29.371Z,7.25
2019-02-07T02:14:01.757Z,7.26
2019-02-07T02:16:33.768Z,7.26
2019-02-07T02:19:06.055Z,7.25
2019-02-07T02:21:38.153Z,7.25
2019-02-07T02:24:10.088Z,7.24
2019-02-07T02:26:42.355Z,7.24
2019-02-07T02:29:15.478Z,7.25
2019-02-07T02:31:47.434Z,7.28
2019-02-07T02:34:19.350Z,7.27
2019-02-07T02:36:51.452Z,7.27
2019-02-07T02:39:23.373Z,7.26
2019-02-07T02:41:55.412Z,7.26
2019-02-07T02:44:27.490Z,7.27
2019-02-07T02:46:59.441Z,7.29
2019-02-07T02:49:31.425Z,7.29
2019-02-07T02:52:03.363Z,7.29
2019-02-07T02:54:39.717Z,7.30
2019-02-07T02:57:11.641Z,7.30
2019-02-07T02:59:43.572Z,7.30
2019-02-07T03:02:29.719Z,7.29
2019-02-07T03:05:03.286Z,7.27
2019-02-07T03:07:39.853Z,7.28
2019-02-07T03:10:20.020Z,7.29
2019-02-07T03:12:53.870Z,7.29
2019-02-07T03:15:49.768Z,7.29
2019-02-07T03:18:21.759Z,7.24
2019-02-07T03:21:01.412Z,7.22
2019-02-07T03:23:53.041Z,7.24
2019-02-07T03:26:32.569Z,7.25
2019-02-07T03:29:06.379Z,7.24
2019-02-07T03:31:49.323Z,7.24
2019-02-07T03:34:22.894Z,7.24
2019-02-07T03:36:59.131Z,7.24
2019-02-07T03:39:44.715Z,7.24
2019-02-07T03:42:27.037Z,7.23
2019-02-07T03:45:12.576Z,7.22
2019-02-07T03:47:58.561Z,7.21
2019-02-07T03:50:50.603Z,7.22
2019-02-07T03:53:24.168Z,7.18
2019-02-07T03:56:03.761Z,7.19
2019-02-07T03:58:52.245Z,7.20
2019-02-07T04:01:34.788Z,7.19
2019-02-07T04:04:26.453Z,7.20
2019-02-07T04:07:00.044Z,7.19
2019-02-07T04:09:37.479Z,7.20
2019-02-07T04:12:16.972Z,7.20
2019-02-07T04:14:50.547Z,7.21
2019-02-07T04:17:24.120Z,7.20
2019-02-07T04:19:57.702Z,7.20
2019-02-07T04:22:49.531Z,7.19
2019-02-07T04:25:23.525Z,7.16
2019-02-07T04:27:57.528Z,7.15
2019-02-07T04:30:31.206Z,7.16
2019-02-07T04:33:04.768Z,7.16
2019-02-07T04:35:44.294Z,7.17
2019-02-07T04:38:33.027Z,7.18
2019-02-07T04:41:23.167Z,7.18
2019-02-07T04:44:12.467Z,7.19
2019-02-07T04:47:01.100Z,7.19
2019-02-07T04:49:40.607Z,7.21
2019-02-07T04:52:20.536Z,7.22
2019-02-07T04:55:00.349Z,7.25
2019-02-07T04:57:34.119Z,7.27
2019-02-07T05:00:25.422Z,7.27
2019-02-07T05:02:59.252Z,7.26
2019-02-07T05:05:35.687Z,7.26
2019-02-07T05:08:25.603Z,7.26
2019-02-07T05:11:05.685Z,7.26
2019-02-07T05:13:39.537Z,7.22
2019-02-07T05:16:39.232Z,7.22
2019-02-07T05:19:09.320Z,7.20
2019-02-07T05:21:46.258Z,7.20
2019-02-07T05:24:25.465Z,7.20
2019-02-07T05:27:15.241Z,7.19
2019-02-07T05:29:57.968Z,7.17
2019-02-07T05:32:32.067Z,7.12
2019-02-07T05:35:09.237Z,7.10
2019-02-07T05:37:59.369Z,7.08
2019-02-07T05:40:38.937Z,7.04
2019-02-07T05:43:12.864Z,7.02
2019-02-07T05:46:01.949Z,6.98
2019-02-07T05:48:41.637Z,6.96
2019-02-07T05:51:18.135Z,6.93
2019-02-07T05:53:51.721Z,6.92
2019-02-07T05:56:31.346Z,6.88
2019-02-07T05:59:07.800Z,6.84
2019-02-07T06:01:47.420Z,6.80
2019-02-07T06:04:39.383Z,6.77
2019-02-07T06:07:12.940Z,6.75
2019-02-07T06:09:58.778Z,6.74
2019-02-07T06:12:48.461Z,6.74
2019-02-07T06:15:22.115Z,6.75
2019-02-07T06:18:10.581Z,6.76
2019-02-07T06:20:50.102Z,6.76
2019-02-07T06:23:40.158Z,6.77
2019-02-07T06:26:30.015Z,6.80
2019-02-07T06:29:12.588Z,6.82
2019-02-07T06:31:52.136Z,6.82
2019-02-07T06:34:31.390Z,6.84
2019-02-07T06:37:17.350Z,6.86
2019-02-07T06:39:50.976Z,6.90
2019-02-07T06:42:27.752Z,6.91
2019-02-07T06:45:19.377Z,6.90
2019-02-07T06:47:53.016Z,6.91
2019-02-07T06:50:29.630Z,6.91
2019-02-07T06:53:03.538Z,6.91
2019-02-07T06:55:49.010Z,6.90
2019-02-07T06:58:35.109Z,6.89
2019-02-07T07:01:25.065Z,6.89
2019-02-07T07:03:58.717Z,6.90
2019-02-07T07:06:32.292Z,6.92
2019-02-07T07:09:21.532Z,6.91
2019-02-07T07:11:58.063Z,6.91
2019-02-07T07:14:37.562Z,6.90
2019-02-07T07:17:11.135Z,6.90
2019-02-07T07:19:44.697Z,6.87
2019-02-07T07:22:21.173Z,6.89
2019-02-07T07:25:03.451Z,6.89
2019-02-07T07:27:42.700Z,6.92
2019-02-07T07:30:17.569Z,6.90
2019-02-07T07:32:57.282Z,6.88
2019-02-07T07:35:40.073Z,6.87
2019-02-07T07:38:16.344Z,6.85
2019-02-07T07:40:58.721Z,6.82
2019-02-07T07:43:50.615Z,6.82
2019-02-07T07:46:27.461Z,6.83
2019-02-07T07:49:13.318Z,6.82
2019-02-07T07:51:46.950Z,6.84
2019-02-07T07:54:26.352Z,6.84
2019-02-07T07:56:59.902Z,6.83
2019-02-07T07:59:33.517Z,6.85
2019-02-07T08:02:13.548Z,6.87
2019-02-07T08:04:56.366Z,6.89
2019-02-07T08:07:36.546Z,6.91
2019-02-07T08:10:29.863Z,6.90
2019-02-07T08:13:03.411Z,6.90
2019-02-07T08:15:40.103Z,6.91
2019-02-07T08:18:30.012Z,6.94
2019-02-07T08:21:19.778Z,6.95
2019-02-07T08:23:59.476Z,6.98
2019-02-07T08:26:42.259Z,7.01
2019-02-07T08:29:15.944Z,7.04
2019-02-07T08:31:49.625Z,7.06
2019-02-07T08:34:37.849Z,7.12
2019-02-07T08:37:20.570Z,7.18
2019-02-07T08:40:00.100Z,7.21
2019-02-07T08:42:42.154Z,7.23
2019-02-07T08:45:15.931Z,7.27
2019-02-07T08:47:58.443Z,7.32
2019-02-07T08:50:40.114Z,7.37
2019-02-07T08:53:19.395Z,7.39
2019-02-07T08:55:55.692Z,7.42
2019-02-07T08:58:34.944Z,7.44
2019-02-07T09:01:11.338Z,7.47
2019-02-07T09:03:46.512Z,7.49
2019-02-07T09:06:23.141Z,7.49
2019-02-07T09:09:08.953Z,7.48
2019-02-07T09:11:42.548Z,7.46
2019-02-07T09:14:32.238Z,7.46
2019-02-07T09:17:15.260Z,7.42
2019-02-07T09:20:07.373Z,7.40
2019-02-07T09:22:57.219Z,7.38
2019-02-07T09:25:34.549Z,7.33
2019-02-07T09:28:24.708Z,7.31
2019-02-07T09:31:14.625Z,7.31
2019-02-07T09:33:50.929Z,7.28
2019-02-07T09:36:40.798Z,7.29
2019-02-07T09:39:32.224Z,7.30
2019-02-07T09:42:06.281Z,7.31
2019-02-07T09:44:52.098Z,7.32
2019-02-07T09:47:41.038Z,7.34
2019-02-07T09:50:15.327Z,7.34
2019-02-07T09:53:04.001Z,7.35
2019-02-07T09:55:40.529Z,7.35
2019-02-07T09:58:31.539Z,7.37
2019-02-07T10:01:20.106Z,7.39
2019-02-07T10:03:59.444Z,7.41
2019-02-07T10:06:50.551Z,7.45
2019-02-07T10:09:30.207Z,7.46
2019-02-07T10:12:12.680Z,7.46
2019-02-07T10:14:46.702Z,7.49
2019-02-07T10:17:23.749Z,7.52
2019-02-07T10:19:59.016Z,7.53
2019-02-07T10:22:35.883Z,7.57
2019-02-07T10:25:19.795Z,7.62
2019-02-07T10:27:59.301Z,7.64
2019-02-07T10:30:33.360Z,7.66
2019-02-07T10:33:13.955Z,7.68
2019-02-07T10:36:02.606Z,7.71
2019-02-07T10:38:48.476Z,7.74
2019-02-07T10:41:28.251Z,7.78
2019-02-07T10:44:01.910Z,7.82
2019-02-07T10:46:52.022Z,7.86
2019-02-07T10:49:42.519Z,7.89
2019-02-07T10:52:19.555Z,7.89
2019-02-07T10:55:09.481Z,7.90
2019-02-07T10:57:43.104Z,7.90
2019-02-07T11:00:28.533Z,7.91
2019-02-07T11:03:18.365Z,7.94
2019-02-07T11:05:54.560Z,7.96
2019-02-07T11:08:36.558Z,7.98
2019-02-07T11:11:10.163Z,7.98
2019-02-07T11:13:48.445Z,7.99
2019-02-07T11:16:37.383Z,7.69
2019-02-07T11:19:21.295Z,8.03
2019-02-07T11:21:55.465Z,8.07
2019-02-07T11:24:45.460Z,8.08
2019-02-07T11:27:19.229Z,8.07
2019-02-07T11:29:59.105Z,8.09
2019-02-07T11:32:32.672Z,8.09
2019-02-07T11:35:23.099Z,8.08
2019-02-07T11:38:05.668Z,8.08
2019-02-07T11:40:41.300Z,8.05
2019-02-07T11:43:16.601Z,8.05
2019-02-07T11:45:56.390Z,8.04
2019-02-07T11:48:30.281Z,8.01
2019-02-07T11:51:08.461Z,7.99
2019-02-07T11:53:47.830Z,7.97
2019-02-07T11:56:30.305Z,7.96
2019-02-07T11:59:03.971Z,7.98
2019-02-07T12:01:37.810Z,7.99
2019-02-07T12:04:25.628Z,8.01
2019-02-07T12:06:59.209Z,8.00
2019-02-07T12:09:45.304Z,7.99
2019-02-07T12:12:28.486Z,7.95
2019-02-07T12:15:18.458Z,7.93
2019-02-07T12:17:54.945Z,7.87
2019-02-07T12:20:44.689Z,7.85
2019-02-07T12:23:18.255Z,7.80
2019-02-07T12:25:51.839Z,7.75
2019-02-07T12:28:27.272Z,7.71
2019-02-07T12:31:10.817Z,7.70
2019-02-07T12:33:50.398Z,7.70
2019-02-07T12:36:23.966Z,7.72
2019-02-07T12:39:01.009Z,7.75
2019-02-07T12:41:47.027Z,7.75
2019-02-07T12:44:23.709Z,7.76
2019-02-07T12:47:15.540Z,7.75
2019-02-07T12:50:05.390Z,7.75
2019-02-07T12:52:49.507Z,7.75
2019-02-07T12:55:23.170Z,7.78
2019-02-07T12:58:11.806Z,7.80
2019-02-07T13:00:51.901Z,7.82
2019-02-07T13:03:41.625Z,7.80
2019-02-07T13:06:15.905Z,7.75
2019-02-07T13:08:50.102Z,7.71
2019-02-07T13:11:23.770Z,7.72
2019-02-07T13:14:17.164Z,7.73
2019-02-07T13:16:56.755Z,7.75
2019-02-07T13:19:40.200Z,7.78
2019-02-07T13:22:15.770Z,7.81
2019-02-07T13:24:52.459Z,7.82
2019-02-07T13:27:38.085Z,7.80
2019-02-07T13:30:19.400Z,7.81
2019-02-07T13:32:58.827Z,7.80
2019-02-07T13:35:47.647Z,7.82
2019-02-07T13:38:30.098Z,7.81
2019-02-07T13:41:19.093Z,7.83
2019-02-07T13:44:04.448Z,7.85
2019-02-07T13:46:38.415Z,7.87
2019-02-07T13:49:15.581Z,7.88
2019-02-07T13:51:55.164Z,7.88
2019-02-07T13:54:34.812Z,7.88
2019-02-07T13:57:20.624Z,7.90
2019-02-07T14:00:10.423Z,7.92
2019-02-07T14:02:53.012Z,7.92
2019-02-07T14:05:42.891Z,7.94
2019-02-07T14:08:19.140Z,7.94
2019-02-07T14:10:55.607Z,7.96
2019-02-07T14:13:45.284Z,7.99
2019-02-07T14:16:21.401Z,7.99
2019-02-07T14:19:03.972Z,8.01
2019-02-07T14:21:43.672Z,8.02
2019-02-07T14:24:33.615Z,8.03
2019-02-07T14:27:16.298Z,8.04
2019-02-07T14:29:49.851Z,8.04
2019-02-07T14:32:39.648Z,8.07
2019-02-07T14:35:30.450Z,8.08
2019-02-07T14:38:06.850Z,8.09
2019-02-07T14:40:43.353Z,8.10
2019-02-07T14:43:17.213Z,8.12
2019-02-07T14:45:56.743Z,8.11
2019-02-07T14:48:29.042Z,8.13
2019-02-07T14:51:00.978Z,8.16
2019-02-07T14:53:33.278Z,8.17
2019-02-07T14:56:05.719Z,8.18
2019-02-07T14:58:38.040Z,8.18
2019-02-07T15:01:10.489Z,8.17
2019-02-07T15:03:42.539Z,8.17
2019-02-07T15:06:14.811Z,8.16
2019-02-07T15:08:46.831Z,8.12
2019-02-07T15:11:18.775Z,8.10
2019-02-07T15:13:51.143Z,8.10
2019-02-07T15:16:23.073Z,8.09
2019-02-07T15:18:55.086Z,8.09
2019-02-07T15:21:27.138Z,8.09
2019-02-07T15:23:59.102Z,8.09
2019-02-07T15:26:31.264Z,8.07
2019-02-07T15:29:03.331Z,8.05
2019-02-07T15:31:35.270Z,8.04
2019-02-07T15:34:07.709Z,8.01
2019-02-07T15:36:39.875Z,7.99
2019-02-07T15:39:15.236Z,7.97
2019-02-07T15:41:47.717Z,7.94
2019-02-07T15:44:21.181Z,7.90
2019-02-07T15:46:53.131Z,7.87
2019-02-07T15:49:25.056Z,7.52
2019-02-07T16:05:57.032Z,7.46
2019-02-07T16:08:28.949Z,7.38
2019-02-07T16:11:01.285Z,7.38
2019-02-07T16:13:33.517Z,7.35
2019-02-07T16:16:05.610Z,7.33
2019-02-07T16:18:37.527Z,7.32
2019-02-07T16:21:09.590Z,7.29
2019-02-07T16:23:41.517Z,7.28
2019-02-07T16:26:14.771Z,7.28
2019-02-07T16:28:46.805Z,7.27
2019-02-07T16:31:18.780Z,7.27
2019-02-07T16:33:50.750Z,7.31
2019-02-07T16:36:23.027Z,7.35
2019-02-07T16:38:55.593Z,7.32
2019-02-07T16:41:27.606Z,7.29
2019-02-07T16:43:59.535Z,7.27
2019-02-07T16:46:31.536Z,7.23
2019-02-07T16:49:03.464Z,7.21
2019-02-07T16:51:35.492Z,7.19
2019-02-07T16:54:08.110Z,7.16
2019-02-07T16:56:40.068Z,7.11
2019-02-07T16:59:12.128Z,7.09
2019-02-07T17:01:45.174Z,7.08
2019-02-07T17:04:17.406Z,7.05
2019-02-07T17:06:49.372Z,7.05
2019-02-07T17:09:23.290Z,7.04
2019-02-07T17:11:55.814Z,7.01
2019-02-07T17:14:30.042Z,6.98
2019-02-07T17:17:02.098Z,6.98
2019-02-07T17:19:34.206Z,6.97
2019-02-07T17:22:06.501Z,6.97
2019-02-07T17:24:38.435Z,6.91
2019-02-07T17:27:11.127Z,6.96
2019-02-07T17:29:43.051Z,6.96
2019-02-07T17:32:15.301Z,6.93
2019-02-07T17:34:47.275Z,6.91
2019-02-07T17:37:19.520Z,6.89
2019-02-07T17:39:51.896Z,6.88
2019-02-07T17:42:24.131Z,6.87
2019-02-07T17:44:56.123Z,6.86
2019-02-07T17:47:28.134Z,6.84
2019-02-07T17:50:00.218Z,6.85
2019-02-07T17:52:32.156Z,6.84
2019-02-07T17:55:06.421Z,6.83
2019-02-07T17:57:38.688Z,6.83
2019-02-07T18:00:31.190Z,6.83
2019-02-07T18:03:03.510Z,6.79
2019-02-07T18:05:37.378Z,6.79
2019-02-07T18:08:10.183Z,6.78
2019-02-07T18:10:42.531Z,6.77
2019-02-07T18:13:15.022Z,6.75
2019-02-07T18:15:46.976Z,6.77
2019-02-07T18:18:18.971Z,6.77
2019-02-07T18:20:52.036Z,6.76
2019-02-07T18:23:23.965Z,6.77
2019-02-07T18:25:56.182Z,6.77
2019-02-07T18:28:28.203Z,6.74
2019-02-07T18:31:00.234Z,6.72
2019-02-07T18:33:32.219Z,6.72
2019-02-07T18:36:04.292Z,6.70
2019-02-07T18:38:36.388Z,6.68
2019-02-07T18:41:08.903Z,6.67
2019-02-07T18:43:40.899Z,6.66
2019-02-07T18:46:12.914Z,6.65
2019-02-07T18:48:44.899Z,6.63
2019-02-07T18:51:16.933Z,6.62
2019-02-07T18:53:48.861Z,6.61
2019-02-07T18:56:20.821Z,6.62
2019-02-07T18:58:52.745Z,6.61
2019-02-07T19:01:25.015Z,6.62
2019-02-07T19:03:56.965Z,6.63
2019-02-07T19:06:28.890Z,6.64
2019-02-07T19:09:01.591Z,6.62
2019-02-07T19:11:33.530Z,6.63
2019-02-07T19:14:05.859Z,6.64
2019-02-07T19:16:37.859Z,6.63
2019-02-07T19:19:09.863Z,6.63
2019-02-07T19:21:42.210Z,6.63
2019-02-07T19:24:14.101Z,6.64
2019-02-07T19:26:46.102Z,6.66
2019-02-07T19:29:18.032Z,6.68
2019-02-07T19:31:49.982Z,6.69
2019-02-07T19:34:21.915Z,6.70
2019-02-07T19:36:53.853Z,6.70
2019-02-07T19:39:25.871Z,6.71
2019-02-07T19:41:57.862Z,6.71
2019-02-07T19:44:29.793Z,6.72
2019-02-07T19:47:01.789Z,6.73
2019-02-07T19:49:33.718Z,6.72
2019-02-07T19:52:08.072Z,6.71
2019-02-07T19:54:39.784Z,6.72
2019-02-07T19:57:11.779Z,6.71
2019-02-07T19:59:44.080Z,6.72
2019-02-07T20:02:16.000Z,6.71
2019-02-07T20:04:48.102Z,6.73
2019-02-07T20:07:20.027Z,6.72
2019-02-07T20:09:51.965Z,6.73
2019-02-07T20:12:23.886Z,6.72
2019-02-07T20:14:55.818Z,6.71
2019-02-07T20:17:27.759Z,6.72
2019-02-07T20:19:59.989Z,6.72
2019-02-07T20:22:32.252Z,6.72
2019-02-07T20:25:06.187Z,6.74
2019-02-07T20:27:38.203Z,6.72
2019-02-07T20:30:26.887Z,6.73
2019-02-07T20:32:59.361Z,6.75
2019-02-07T20:35:31.365Z,6.76
2019-02-07T20:38:03.290Z,6.77
2019-02-07T20:40:35.868Z,6.78
2019-02-07T20:43:08.873Z,6.77
2019-02-07T20:45:41.181Z,6.78
2019-02-07T20:48:13.102Z,6.76
2019-02-07T20:50:45.057Z,6.76
2019-02-07T20:53:17.042Z,6.77
2019-02-07T20:55:49.371Z,6.76
2019-02-07T20:58:21.293Z,6.76
2019-02-07T21:00:53.285Z,6.76
2019-02-07T21:03:25.281Z,6.76
2019-02-07T21:05:57.572Z,6.74
2019-02-07T21:08:29.495Z,6.73
2019-02-07T21:11:01.989Z,6.74
2019-02-07T21:13:34.013Z,6.74
2019-02-07T21:16:06.327Z,6.74
2019-02-07T21:18:38.258Z,6.74
2019-02-07T21:21:10.556Z,6.73
2019-02-07T21:23:42.501Z,6.71
2019-02-07T21:26:14.434Z,6.72
2019-02-07T21:28:46.471Z,6.71
2019-02-07T21:31:18.505Z,6.70
2019-02-07T21:33:50.481Z,6.72
2019-02-07T21:36:22.395Z,6.72
2019-02-07T21:38:54.332Z,6.76
2019-02-07T21:41:26.280Z,6.77
2019-02-07T21:43:58.272Z,6.79
2019-02-07T21:46:30.252Z,6.82
2019-02-07T21:49:02.549Z,6.82
2019-02-07T21:51:34.844Z,6.84
2019-02-07T21:54:07.385Z,6.87
2019-02-07T21:56:39.591Z,6.88
2019-02-07T21:59:11.516Z,6.89
2019-02-07T22:01:44.132Z,6.90
2019-02-07T22:04:16.506Z,6.91
2019-02-07T22:06:48.442Z,6.93
2019-02-07T22:09:20.376Z,6.95
2019-02-07T22:11:52.326Z,6.96
2019-02-07T22:14:24.631Z,6.98
2019-02-07T22:16:56.562Z,6.99
2019-02-07T22:19:28.545Z,7.01
2019-02-07T22:22:00.482Z,7.01
2019-02-07T22:24:32.746Z,7.03
2019-02-07T22:27:05.620Z,7.06
2019-02-07T22:29:37.534Z,7.08
2019-02-07T22:32:09.558Z,7.09
2019-02-07T22:34:41.474Z,7.10
2019-02-07T22:37:13.419Z,7.11
2019-02-07T22:39:45.721Z,7.13
2019-02-07T22:42:17.724Z,7.15
2019-02-07T22:44:49.661Z,7.17
2019-02-07T22:47:21.613Z,7.19
2019-02-07T22:49:53.545Z,7.20
2019-02-07T22:52:25.942Z,7.21
2019-02-07T22:54:57.870Z,7.23
2019-02-07T22:57:30.107Z,7.23
2019-02-07T23:00:02.051Z,7.26
2019-02-07T23:02:34.041Z,7.30
2019-02-07T23:05:07.510Z,7.31
2019-02-07T23:07:39.449Z,7.35
2019-02-07T23:10:11.517Z,7.36
2019-02-07T23:12:43.443Z,7.38
2019-02-07T23:15:15.516Z,7.37
2019-02-07T23:17:47.503Z,7.38
2019-02-07T23:20:19.829Z,7.39
2019-02-07T23:22:51.813Z,7.39
2019-02-07T23:25:23.760Z,7.40
2019-02-07T23:27:55.935Z,7.41
2019-02-07T23:30:27.868Z,7.42
2019-02-07T23:32:59.867Z,7.43
2019-02-07T23:35:31.865Z,7.43
2019-02-07T23:38:04.501Z,7.44
2019-02-07T23:40:36.727Z,7.44
2019-02-07T23:43:09.467Z,7.46
2019-02-07T23:45:41.454Z,7.47
2019-02-07T23:48:13.546Z,7.47
2019-02-07T23:50:45.545Z,7.51
2019-02-07T23:53:17.527Z,7.53
2019-02-07T23:55:49.769Z,7.54
2019-02-07T23:58:21.898Z,7.56
